createdAt,value
2018-01-04T00:00:04.639Z,6.45
2018-01-04T00:02:32.062Z,5.72
2018-01-04T00:04:59.490Z,4.80
2018-01-04T00:07:27.715Z,6.40
2018-01-04T00:09:55.186Z,5.15
2018-01-04T00:12:22.638Z,5.40
2018-01-04T00:14:50.306Z,4.70
2018-01-04T00:17:17.866Z,4.78
2018-01-04T00:19:45.478Z,5.43
2018-01-04T00:22:13.702Z,5.72
2018-01-04T00:24:41.244Z,5.18
2018-01-04T00:27:08.917Z,5.37
2018-01-04T00:29:37.237Z,5.53
2018-01-04T00:32:04.754Z,5.87
2018-01-04T00:34:32.223Z,4.97
2018-01-04T00:36:59.679Z,4.12
2018-01-04T00:39:27.101Z,5.12
2018-01-04T00:41:54.585Z,5.87
2018-01-04T00:44:22.014Z,5.05
2018-01-04T00:46:49.433Z,5.30
2018-01-04T00:49:16.867Z,6.18
2018-01-04T00:51:44.425Z,5.85
2018-01-04T00:54:11.886Z,5.43
2018-01-04T00:56:39.650Z,4.03
2018-01-04T00:59:07.273Z,5.20
2018-01-04T01:01:34.714Z,4.90
2018-01-04T01:04:02.897Z,4.45
2018-01-04T01:06:30.394Z,5.82
2018-01-04T01:08:58.034Z,5.62
2018-01-04T01:11:25.545Z,5.05
2018-01-04T01:13:53.133Z,4.47
2018-01-04T01:16:20.847Z,4.40
2018-01-04T01:18:48.609Z,5.78
2018-01-04T01:21:16.246Z,4.78
2018-01-04T01:23:43.835Z,5.90
2018-01-04T01:26:11.261Z,4.00
2018-01-04T01:28:38.681Z,5.28
2018-01-04T01:31:06.209Z,6.85
2018-01-04T01:33:33.969Z,5.10
2018-01-04T01:36:01.438Z,5.32
2018-01-04T01:38:28.887Z,5.30
2018-01-04T01:40:56.649Z,5.15
2018-01-04T01:43:24.409Z,4.75
2018-01-04T01:45:51.839Z,4.70
2018-01-04T01:48:19.284Z,5.37
2018-01-04T01:50:46.786Z,4.05
2018-01-04T01:53:14.426Z,5.20
2018-01-04T01:55:41.855Z,4.70
2018-01-04T01:58:10.085Z,6.00
2018-01-04T02:00:37.541Z,4.47
2018-01-04T02:03:05.305Z,4.75
2018-01-04T02:05:32.743Z,5.07
2018-01-04T02:08:00.225Z,5.18
2018-01-04T02:10:27.763Z,4.55
2018-01-04T02:12:55.440Z,5.62
2018-01-04T02:15:23.209Z,5.32
2018-01-04T02:17:51.593Z,4.35
2018-01-04T02:20:30.735Z,3.95
2018-01-04T02:23:09.880Z,5.22
2018-01-04T02:25:46.225Z,5.28
2018-01-04T02:31:27.874Z,4.03
2018-01-04T02:34:07.278Z,4.45
2018-01-04T02:36:46.438Z,5.32
2018-01-04T02:39:25.847Z,5.45
2018-01-04T02:42:05.173Z,4.95
2018-01-04T02:44:39.461Z,5.78
2018-01-04T02:47:06.887Z,4.62
2018-01-04T02:49:34.314Z,4.90
2018-01-04T02:52:01.759Z,5.15
2018-01-04T02:54:29.319Z,5.12
2018-01-04T02:56:56.750Z,3.75
2018-01-04T02:59:24.245Z,5.47
2018-01-04T03:01:51.693Z,6.37
2018-01-04T03:04:19.122Z,4.05
2018-01-04T03:06:46.538Z,4.85
2018-01-04T03:09:13.974Z,6.07
2018-01-04T03:11:41.466Z,5.75
2018-01-04T03:14:08.990Z,4.25
2018-01-04T03:16:36.450Z,7.03
2018-01-04T03:19:03.906Z,4.75
2018-01-04T03:21:31.541Z,5.78
2018-01-04T03:23:59.029Z,3.92
2018-01-04T03:26:31.999Z,4.70
2018-01-04T03:29:04.962Z,4.70
2018-01-04T03:31:38.970Z,5.00
2018-01-04T03:34:24.094Z,6.05
2018-01-04T03:36:57.042Z,5.00
2018-01-04T03:39:24.465Z,4.37
2018-01-04T03:41:57.678Z,5.05
2018-01-04T03:44:30.817Z,5.93
2018-01-04T03:47:03.992Z,5.85
2018-01-04T03:49:52.246Z,5.32
2018-01-04T03:52:35.270Z,5.57
2018-01-04T03:55:08.274Z,6.45
2018-01-04T03:57:41.614Z,5.10
2018-01-04T04:00:15.501Z,4.87
2018-01-04T04:02:48.754Z,5.15
2018-01-04T04:05:21.943Z,5.72
2018-01-04T04:07:49.374Z,5.32
2018-01-04T04:10:16.802Z,5.22
2018-01-04T04:12:44.225Z,7.25
2018-01-04T04:15:11.694Z,7.28
2018-01-04T04:17:39.246Z,4.97
2018-01-04T04:20:06.877Z,4.97
2018-01-04T04:22:34.461Z,7.37
2018-01-04T04:25:01.918Z,5.70
2018-01-04T04:27:29.558Z,6.53
2018-01-04T04:29:57.051Z,6.28
2018-01-04T04:32:24.602Z,5.12
2018-01-04T04:34:52.030Z,5.90
2018-01-04T04:37:19.457Z,5.60
2018-01-04T04:39:46.883Z,6.45
2018-01-04T04:42:14.314Z,4.72
2018-01-04T04:44:41.799Z,5.68
2018-01-04T04:47:09.353Z,6.78
2018-01-04T04:49:36.809Z,5.57
2018-01-04T04:52:04.457Z,6.53
2018-01-04T04:54:32.036Z,6.05
2018-01-04T04:56:59.486Z,5.05
2018-01-04T04:59:27.122Z,7.87
2018-01-04T05:01:54.710Z,6.50
2018-01-04T05:04:22.144Z,6.07
2018-01-04T05:06:49.565Z,4.72
2018-01-04T05:09:17.092Z,5.18
2018-01-04T05:11:44.717Z,6.03
2018-01-04T05:14:12.194Z,6.50
2018-01-04T05:16:39.644Z,7.05
2018-01-04T05:19:07.159Z,7.35
2018-01-04T05:21:34.587Z,5.47
2018-01-04T05:24:02.087Z,5.97
2018-01-04T05:26:29.602Z,5.62
2018-01-04T05:28:57.243Z,6.75
2018-01-04T05:31:24.822Z,7.35
2018-01-04T05:33:52.262Z,7.15
2018-01-04T05:36:19.689Z,6.70
2018-01-04T05:38:47.196Z,6.68
2018-01-04T05:41:14.829Z,7.20
2018-01-04T05:43:42.266Z,5.82
2018-01-04T05:46:10.682Z,5.70
2018-01-04T05:48:38.155Z,7.07
2018-01-04T05:51:05.709Z,6.75
2018-01-04T05:53:33.157Z,7.10
2018-01-04T05:56:00.590Z,7.20
2018-01-04T05:58:28.086Z,5.40
2018-01-04T06:00:55.730Z,5.97
2018-01-04T06:03:23.314Z,6.57
2018-01-04T06:05:50.954Z,5.72
2018-01-04T06:08:18.462Z,5.70
2018-01-04T06:10:45.990Z,6.75
2018-01-04T06:13:13.753Z,5.50
2018-01-04T06:15:41.385Z,7.22
2018-01-04T06:18:08.978Z,5.70
2018-01-04T06:20:36.939Z,6.80
2018-01-04T06:23:04.514Z,6.50
2018-01-04T06:25:32.146Z,6.37
2018-01-04T06:27:59.657Z,5.57
2018-01-04T06:30:27.090Z,6.87
2018-01-04T06:32:54.650Z,6.12
2018-01-04T06:35:22.274Z,5.95
2018-01-04T06:37:49.874Z,6.78
2018-01-04T06:40:17.298Z,6.50
2018-01-04T06:42:44.742Z,6.93
2018-01-04T06:45:12.176Z,6.00
2018-01-04T06:47:39.597Z,6.18
2018-01-04T06:50:07.159Z,5.85
2018-01-04T06:52:34.926Z,6.87
2018-01-04T06:55:02.695Z,6.05
2018-01-04T06:57:30.322Z,5.82
2018-01-04T06:59:57.914Z,5.78
2018-01-04T07:02:25.562Z,6.00
2018-01-04T07:04:53.139Z,6.55
2018-01-04T07:07:20.579Z,5.35
2018-01-04T07:09:47.993Z,5.45
2018-01-04T07:12:16.316Z,5.00
2018-01-04T07:14:43.805Z,5.57
2018-01-04T07:17:11.256Z,4.20
2018-01-04T07:19:38.677Z,5.20
2018-01-04T07:22:06.263Z,6.50
2018-01-04T07:24:33.724Z,6.62
2018-01-04T07:27:01.361Z,4.65
2018-01-04T07:29:28.937Z,6.03
2018-01-04T07:31:56.402Z,4.70
2018-01-04T07:34:23.839Z,5.60
2018-01-04T07:36:51.266Z,5.65
2018-01-04T07:39:19.598Z,5.87
2018-01-04T07:41:47.209Z,4.50
2018-01-04T07:44:14.789Z,6.07
2018-01-04T07:46:42.378Z,6.07
2018-01-04T07:49:10.010Z,4.37
2018-01-04T07:51:37.597Z,4.45
2018-01-04T07:54:05.053Z,6.43
2018-01-04T07:56:32.497Z,6.90
2018-01-04T07:58:59.926Z,6.18
2018-01-04T08:01:27.353Z,4.78
2018-01-04T08:03:54.798Z,5.10
2018-01-04T08:06:22.213Z,5.57
2018-01-04T08:08:49.706Z,4.65
2018-01-04T08:11:17.141Z,5.55
2018-01-04T08:13:44.621Z,4.60
2018-01-04T08:16:12.081Z,5.50
2018-01-04T08:18:39.550Z,5.65
2018-01-04T08:21:07.085Z,4.37
2018-01-04T08:23:34.518Z,4.28
2018-01-04T08:26:02.018Z,5.43
2018-01-04T08:28:29.770Z,4.93
2018-01-04T08:30:57.192Z,4.10
2018-01-04T08:33:24.609Z,5.65
2018-01-04T08:35:52.150Z,5.95
2018-01-04T08:38:19.577Z,5.25
2018-01-04T08:40:47.061Z,5.25
2018-01-04T08:43:14.522Z,6.10
2018-01-04T08:45:42.150Z,4.97
2018-01-04T08:48:09.741Z,5.70
2018-01-04T08:50:37.382Z,7.20
2018-01-04T08:53:04.962Z,4.78
2018-01-04T08:55:32.402Z,6.50
2018-01-04T08:57:59.886Z,6.55
2018-01-04T09:00:27.729Z,5.78
2018-01-04T09:02:55.287Z,6.55
2018-01-04T09:05:22.738Z,5.70
2018-01-04T09:07:50.231Z,5.28
2018-01-04T09:10:17.691Z,6.12
2018-01-04T09:12:45.150Z,7.05
2018-01-04T09:15:12.703Z,6.78
2018-01-04T09:17:40.125Z,5.18
2018-01-04T09:20:07.605Z,5.43
2018-01-04T09:22:35.022Z,5.32
2018-01-04T09:25:02.533Z,5.10
2018-01-04T09:27:29.999Z,5.53
2018-01-04T09:29:57.454Z,5.30
2018-01-04T09:32:24.893Z,6.12
2018-01-04T09:34:52.318Z,5.25
2018-01-04T09:37:19.733Z,5.55
2018-01-04T09:39:47.186Z,5.00
2018-01-04T09:42:14.642Z,5.22
2018-01-04T09:44:42.061Z,5.85
2018-01-04T09:47:09.653Z,5.18
2018-01-04T09:49:37.190Z,6.43
2018-01-04T09:52:04.782Z,5.60
2018-01-04T09:54:33.414Z,5.90
2018-01-04T09:57:01.813Z,5.32
2018-01-04T09:59:29.347Z,5.65
2018-01-04T10:01:56.857Z,5.35
2018-01-04T10:04:24.486Z,5.30
2018-01-04T10:06:51.914Z,4.95
2018-01-04T10:09:19.346Z,6.37
2018-01-04T10:11:47.006Z,5.80
2018-01-04T10:14:14.458Z,5.62
2018-01-04T10:16:42.104Z,6.43
2018-01-04T10:19:09.682Z,4.85
2018-01-04T10:21:37.446Z,4.55
2018-01-04T10:24:05.210Z,6.10
2018-01-04T10:26:32.654Z,4.85
2018-01-04T10:29:00.082Z,4.40
2018-01-04T10:31:27.506Z,5.90
2018-01-04T10:33:54.934Z,4.80
2018-01-04T10:36:22.399Z,5.05
2018-01-04T10:38:49.886Z,5.15
2018-01-04T10:41:17.611Z,6.18
2018-01-04T10:43:45.035Z,4.70
2018-01-04T10:46:13.254Z,4.60
2018-01-04T10:48:41.022Z,5.10
2018-01-04T10:51:08.645Z,4.20
2018-01-04T10:53:36.079Z,5.22
2018-01-04T10:56:04.266Z,4.85
2018-01-04T10:58:31.762Z,4.50
2018-01-04T11:00:59.230Z,5.07
2018-01-04T11:03:26.989Z,4.78
2018-01-04T11:05:54.621Z,4.60
2018-01-04T11:08:22.109Z,4.95
2018-01-04T11:10:49.673Z,4.75
2018-01-04T11:13:17.439Z,4.25
2018-01-04T11:15:45.069Z,4.85
2018-01-04T11:18:12.856Z,4.12
2018-01-04T11:20:40.326Z,4.50
2018-01-04T11:23:07.881Z,3.58
2018-01-04T11:25:35.649Z,4.90
2018-01-04T11:28:03.074Z,3.35
2018-01-04T11:30:30.507Z,3.03
2018-01-04T11:32:57.933Z,3.65
2018-01-04T11:35:25.382Z,3.53
2018-01-04T11:37:52.949Z,2.58
2018-01-04T11:40:20.399Z,3.08
2018-01-04T11:42:47.854Z,2.78
2018-01-04T11:45:15.504Z,2.90
2018-01-04T11:47:42.946Z,2.50
2018-01-04T11:50:10.530Z,2.80
2018-01-04T11:52:38.170Z,2.72
2018-01-04T11:55:05.763Z,2.55
2018-01-04T11:57:33.186Z,1.87
2018-01-04T12:00:00.618Z,3.00
2018-01-04T12:02:28.042Z,2.53
2018-01-04T12:04:55.505Z,2.80
2018-01-04T12:07:23.049Z,2.42
2018-01-04T12:09:50.506Z,2.17
2018-01-04T12:12:18.133Z,2.72
2018-01-04T12:14:45.658Z,2.90
2018-01-04T12:17:13.095Z,3.83
2018-01-04T12:19:40.651Z,2.92
2018-01-04T12:22:08.107Z,2.97
2018-01-04T12:24:35.752Z,2.50
2018-01-04T12:27:03.165Z,3.17
2018-01-04T12:29:31.355Z,2.37
2018-01-04T12:31:58.851Z,3.17
2018-01-04T12:34:26.273Z,2.47
2018-01-04T12:36:53.770Z,2.78
2018-01-04T12:39:21.409Z,2.08
2018-01-04T12:41:48.995Z,3.17
2018-01-04T12:44:16.418Z,1.62
2018-01-04T12:46:43.918Z,2.40
2018-01-04T12:49:11.555Z,1.77
2018-01-04T12:51:39.139Z,2.80
2018-01-04T12:54:06.901Z,1.90
2018-01-04T12:56:34.430Z,2.97
2018-01-04T12:59:02.006Z,3.05
2018-01-04T13:01:29.585Z,2.50
2018-01-04T13:03:57.006Z,2.72
2018-01-04T13:06:24.435Z,3.03
2018-01-04T13:08:51.861Z,3.08
2018-01-04T13:11:19.410Z,2.80
2018-01-04T13:13:46.951Z,2.95
2018-01-04T13:16:14.543Z,3.42
2018-01-04T13:18:42.094Z,2.75
2018-01-04T13:21:09.743Z,3.40
2018-01-04T13:23:37.182Z,2.62
2018-01-04T13:26:04.765Z,2.78
2018-01-04T13:28:32.398Z,2.15
2018-01-04T13:30:59.989Z,2.60
2018-01-04T13:33:27.451Z,2.00
2018-01-04T13:35:54.881Z,2.40
2018-01-04T13:38:22.361Z,2.00
2018-01-04T13:40:50.002Z,2.72
2018-01-04T13:43:17.785Z,1.85
2018-01-04T13:45:45.222Z,2.47
2018-01-04T13:48:12.737Z,2.75
2018-01-04T13:50:40.270Z,3.22
2018-01-04T13:53:07.738Z,2.65
2018-01-04T13:55:35.499Z,2.95
2018-01-04T13:58:02.922Z,2.85
2018-01-04T14:00:30.405Z,3.42
2018-01-04T14:02:57.829Z,3.28
2018-01-04T14:05:25.258Z,3.72
2018-01-04T14:07:52.687Z,3.80
2018-01-04T14:10:20.246Z,2.95
2018-01-04T14:12:48.010Z,5.37
2018-01-04T14:15:15.766Z,3.58
2018-01-04T14:17:43.242Z,4.25
2018-01-04T14:20:10.998Z,3.80
2018-01-04T14:22:38.774Z,4.72
2018-01-04T14:25:06.522Z,4.28
2018-01-04T14:27:34.158Z,4.32
2018-01-04T14:30:01.590Z,5.22
2018-01-04T14:32:29.789Z,4.85
2018-01-04T14:34:57.281Z,4.03
2018-01-04T14:37:24.719Z,4.45
2018-01-04T14:39:52.137Z,4.45
2018-01-04T14:42:19.649Z,4.25
2018-01-04T14:44:47.074Z,3.58
2018-01-04T14:47:14.659Z,4.30
2018-01-04T14:49:42.342Z,3.50
2018-01-04T14:52:09.778Z,3.90
2018-01-04T14:54:37.257Z,4.03
2018-01-04T14:57:04.900Z,4.85
2018-01-04T14:59:32.373Z,4.80
2018-01-04T15:01:59.862Z,5.87
2018-01-04T15:04:27.290Z,4.72
2018-01-04T15:06:54.732Z,4.68
2018-01-04T15:09:22.152Z,6.53
2018-01-04T15:11:50.383Z,4.62
2018-01-04T15:14:18.146Z,7.75
2018-01-04T15:16:45.769Z,5.57
2018-01-04T15:19:13.261Z,4.70
2018-01-04T15:21:41.017Z,4.20
2018-01-04T15:24:08.481Z,4.87
2018-01-04T15:26:35.923Z,5.30
2018-01-04T15:29:03.401Z,6.07
2018-01-04T15:31:30.846Z,5.55
2018-01-04T15:33:58.254Z,6.50
2018-01-04T15:36:26.494Z,6.10
2018-01-04T15:38:54.256Z,5.95
2018-01-04T15:41:21.685Z,6.62
2018-01-04T15:43:49.118Z,7.70
2018-01-04T15:46:16.549Z,7.80
2018-01-04T15:48:44.097Z,8.82
2018-01-04T15:51:11.531Z,8.82
2018-01-04T15:53:38.973Z,10.65
2018-01-04T15:56:06.406Z,9.48
2018-01-04T15:58:33.921Z,8.30
2018-01-04T16:01:01.345Z,9.02
2018-01-04T16:03:28.845Z,8.30
2018-01-04T16:05:56.279Z,8.95
2018-01-04T16:08:23.713Z,8.38
2018-01-04T16:10:51.141Z,7.70
2018-01-04T16:13:18.589Z,6.60
2018-01-04T16:15:46.131Z,6.85
2018-01-04T16:18:13.554Z,6.82
2018-01-04T16:20:41.039Z,6.43
2018-01-04T16:23:08.672Z,5.78
2018-01-04T16:25:36.211Z,5.28
2018-01-04T16:28:03.638Z,6.60
2018-01-04T16:30:32.096Z,5.80
2018-01-04T16:32:59.530Z,5.90
2018-01-04T16:35:27.022Z,6.32
2018-01-04T16:37:54.477Z,6.50
2018-01-04T16:40:22.110Z,6.40
2018-01-04T16:42:49.543Z,7.05
2018-01-04T16:45:18.083Z,6.85
2018-01-04T16:47:45.845Z,7.15
2018-01-04T16:50:13.307Z,8.20
2018-01-04T16:52:40.737Z,7.95
2018-01-04T16:55:08.217Z,7.18
2018-01-04T16:57:35.650Z,7.60
2018-01-04T17:00:03.161Z,7.82
2018-01-04T17:02:30.768Z,7.28
2018-01-04T17:04:58.358Z,6.72
2018-01-04T17:07:25.824Z,8.13
2018-01-04T17:09:53.445Z,6.75
2018-01-04T17:12:21.038Z,7.43
2018-01-04T17:14:48.485Z,7.35
2018-01-04T17:17:15.906Z,7.20
2018-01-04T17:19:43.346Z,7.47
2018-01-04T17:22:11.546Z,7.10
2018-01-04T17:24:39.245Z,5.95
2018-01-04T17:27:06.683Z,5.37
2018-01-04T17:29:34.167Z,5.50
2018-01-04T17:32:01.627Z,5.20
2018-01-04T17:34:29.390Z,4.95
2018-01-04T17:36:56.847Z,5.03
2018-01-04T17:39:24.302Z,6.20
2018-01-04T17:41:51.763Z,4.60
2018-01-04T17:44:19.194Z,5.28
2018-01-04T17:46:46.626Z,5.75
2018-01-04T17:49:14.133Z,4.87
2018-01-04T17:51:41.596Z,5.75
2018-01-04T17:54:09.026Z,5.50
2018-01-04T17:56:36.511Z,5.25
2018-01-04T17:59:04.270Z,5.40
2018-01-04T18:01:31.913Z,5.82
2018-01-04T18:03:59.361Z,5.25
2018-01-04T18:06:26.953Z,4.93
2018-01-04T18:08:54.720Z,4.80
2018-01-04T18:11:22.158Z,4.00
2018-01-04T18:13:49.642Z,5.17
2018-01-04T18:16:17.094Z,4.97
2018-01-04T18:18:44.859Z,4.78
2018-01-04T18:21:12.630Z,6.62
2018-01-04T18:23:40.079Z,5.65
2018-01-04T18:26:07.519Z,4.97
2018-01-04T18:28:34.949Z,6.10
2018-01-04T18:31:02.386Z,5.70
2018-01-04T18:33:30.701Z,5.53
2018-01-04T18:35:58.299Z,4.93
2018-01-04T18:38:26.063Z,7.10
2018-01-04T18:40:53.833Z,5.00
2018-01-04T18:43:21.277Z,5.95
2018-01-04T18:45:48.725Z,5.47
2018-01-04T18:48:16.381Z,5.95
2018-01-04T18:50:43.967Z,6.68
2018-01-04T18:53:11.729Z,5.68
2018-01-04T18:55:39.494Z,5.50
2018-01-04T18:58:06.935Z,6.45
2018-01-04T19:00:34.394Z,4.95
2018-01-04T19:03:01.871Z,6.45
2018-01-04T19:05:29.307Z,5.95
2018-01-04T19:07:56.742Z,5.35
2018-01-04T19:10:24.238Z,7.00
2018-01-04T19:12:51.674Z,5.10
2018-01-04T19:15:19.105Z,5.90
2018-01-04T19:17:46.618Z,6.65
2018-01-04T19:20:14.249Z,5.35
2018-01-04T19:22:41.835Z,6.72
2018-01-04T19:25:09.469Z,4.53
2018-01-04T19:27:36.990Z,5.05
2018-01-04T19:30:04.518Z,6.10
2018-01-04T19:32:32.152Z,6.30
2018-01-04T19:34:59.737Z,6.90
2018-01-04T19:37:27.208Z,6.47
2018-01-04T19:39:54.658Z,6.80
2018-01-04T19:42:22.281Z,6.78
2018-01-04T19:44:49.883Z,6.00
2018-01-04T19:47:17.322Z,6.32
2018-01-04T19:49:44.759Z,7.15
2018-01-04T19:52:12.182Z,5.53
2018-01-04T19:54:39.612Z,5.68
2018-01-04T19:57:07.050Z,5.80
2018-01-04T19:59:34.526Z,5.75
2018-01-04T20:02:01.999Z,4.95
2018-01-04T20:04:29.537Z,6.37
2018-01-04T20:06:57.188Z,5.85
2018-01-04T20:09:24.625Z,6.05
2018-01-04T20:11:52.226Z,5.82
2018-01-04T20:14:19.667Z,6.20
2018-01-04T20:16:47.315Z,5.95
2018-01-04T20:19:15.490Z,4.97
2018-01-04T20:21:42.927Z,5.00
2018-01-04T20:24:10.429Z,5.53
2018-01-04T20:26:38.094Z,5.12
2018-01-04T20:29:05.659Z,4.37
2018-01-04T20:31:33.113Z,5.57
2018-01-04T20:34:00.749Z,6.18
2018-01-04T20:36:28.234Z,4.78
2018-01-04T20:38:55.800Z,4.97
2018-01-04T20:41:23.221Z,3.17
2018-01-04T20:43:50.649Z,3.30
2018-01-04T20:46:18.170Z,3.85
2018-01-04T20:48:45.603Z,4.82
2018-01-04T20:51:13.082Z,3.85
2018-01-04T20:53:40.533Z,3.42
2018-01-04T20:56:07.998Z,3.70
2018-01-04T20:58:35.425Z,3.65
2018-01-04T21:01:02.849Z,2.40
2018-01-04T21:03:30.337Z,3.03
2018-01-04T21:05:57.825Z,2.45
2018-01-04T21:08:25.594Z,2.97
2018-01-04T21:10:53.014Z,2.50
2018-01-04T21:13:20.504Z,2.80
2018-01-04T21:15:47.948Z,2.80
2018-01-04T21:18:15.382Z,2.70
2018-01-04T21:20:42.810Z,3.03
2018-01-04T21:23:10.254Z,2.00
2018-01-04T21:25:37.802Z,2.85
2018-01-04T21:28:05.250Z,3.85
2018-01-04T21:30:32.682Z,2.28
2018-01-04T21:33:00.106Z,2.80
2018-01-04T21:35:27.538Z,2.20
2018-01-04T21:37:54.958Z,1.62
2018-01-04T21:40:22.546Z,1.55
2018-01-04T21:42:50.319Z,1.20
2018-01-04T21:45:17.818Z,1.42
2018-01-04T21:47:45.434Z,1.10
2018-01-04T21:50:12.998Z,1.58
2018-01-04T21:52:40.647Z,1.33
2018-01-04T21:55:08.130Z,2.20
2018-01-04T21:57:35.681Z,1.48
2018-01-04T22:00:03.116Z,2.12
2018-01-04T22:02:30.545Z,1.60
2018-01-04T22:04:57.962Z,1.70
2018-01-04T22:07:25.398Z,1.80
2018-01-04T22:09:52.865Z,1.60
2018-01-04T22:12:20.422Z,2.40
2018-01-04T22:14:48.174Z,1.60
2018-01-04T22:17:15.647Z,1.70
2018-01-04T22:19:43.171Z,1.80
2018-01-04T22:22:10.751Z,1.62
2018-01-04T22:24:38.230Z,2.08
2018-01-04T22:27:05.676Z,1.50
2018-01-04T22:29:33.095Z,1.10
2018-01-04T22:32:01.603Z,2.03
2018-01-04T22:34:29.035Z,1.33
2018-01-04T22:36:56.490Z,1.20
2018-01-04T22:39:23.914Z,1.85
2018-01-04T22:41:51.458Z,1.27
2018-01-04T22:44:19.226Z,1.90
2018-01-04T22:46:46.641Z,2.28
2018-01-04T22:49:14.131Z,2.05
2018-01-04T22:51:41.594Z,2.75
2018-01-04T22:54:09.353Z,2.05
2018-01-04T22:56:36.994Z,1.80
2018-01-04T22:59:04.464Z,1.98
2018-01-04T23:01:31.881Z,1.90
2018-01-04T23:04:00.418Z,1.98
2018-01-04T23:06:27.841Z,1.60
2018-01-04T23:08:55.318Z,1.60
2018-01-04T23:11:22.738Z,1.25
2018-01-04T23:13:50.162Z,1.55
2018-01-04T23:16:17.606Z,1.65
2018-01-04T23:18:45.158Z,1.25
2018-01-04T23:21:12.793Z,1.62
2018-01-04T23:23:40.290Z,1.90
2018-01-04T23:26:07.750Z,1.80
2018-01-04T23:28:35.297Z,1.25
2018-01-04T23:31:02.738Z,1.33
2018-01-04T23:33:30.214Z,1.45
2018-01-04T23:35:57.678Z,2.65
2018-01-04T23:38:25.107Z,2.40
2018-01-04T23:40:52.594Z,2.35
2018-01-04T23:43:20.018Z,1.80
2018-01-04T23:45:47.505Z,1.52
2018-01-04T23:48:15.142Z,1.60
2018-01-04T23:50:42.733Z,1.75
2018-01-04T23:53:10.498Z,1.67
2018-01-04T23:55:37.929Z,1.85
2018-01-04T23:58:05.367Z,2.20
